sensor_id;sensor_type;location;lat;lon;timestamp;pressure;altitude;pressure_sealevel;temperature;humidity
76637;BME280;65532;52.124;5.480;2023-04-06T00:02:24;101819.63;;;2.34;72.95
76637;BME280;65532;52.124;5.480;2023-04-06T00:04:51;101821.03;;;2.38;72.16
76637;BME280;65532;52.124;5.480;2023-04-06T00:07:17;101820.03;;;2.39;71.75
76637;BME280;65532;52.124;5.480;2023-04-06T00:09:44;101813.53;;;2.42;71.94
76637;BME280;65532;52.124;5.480;2023-04-06T00:12:11;101820.56;;;2.43;71.46
76637;BME280;65532;52.124;5.480;2023-04-06T00:14:37;101814.38;;;2.42;71.41
76637;BME280;65532;52.124;5.480;2023-04-06T00:17:03;101813.69;;;2.40;71.54
76637;BME280;65532;52.124;5.480;2023-04-06T00:19:30;101813.03;;;2.38;71.71
76637;BME280;65532;52.124;5.480;2023-04-06T00:21:56;101811.63;;;2.34;72.49
76637;BME280;65532;52.124;5.480;2023-04-06T00:24:23;101809.88;;;2.25;72.99
76637;BME280;65532;52.124;5.480;2023-04-06T00:26:49;101802.31;;;2.20;72.81
76637;BME280;65532;52.124;5.480;2023-04-06T00:29:16;101801.78;;;2.17;73.44
76637;BME280;65532;52.124;5.480;2023-04-06T00:31:42;101799.88;;;2.09;73.98
76637;BME280;65532;52.124;5.480;2023-04-06T00:34:09;101793.72;;;2.08;74.01
76637;BME280;65532;52.124;5.480;2023-04-06T00:36:36;101792.63;;;2.01;74.51
76637;BME280;65532;52.124;5.480;2023-04-06T00:39:03;101789.72;;;1.95;74.69
76637;BME280;65532;52.124;5.480;2023-04-06T00:41:29;101791.63;;;1.85;75.60
76637;BME280;65532;52.124;5.480;2023-04-06T00:43:56;101782.09;;;1.82;76.07
76637;BME280;65532;52.124;5.480;2023-04-06T00:46:23;101783.75;;;1.83;76.51
76637;BME280;65532;52.124;5.480;2023-04-06T00:48:49;101781.72;;;1.77;76.76
76637;BME280;65532;52.124;5.480;2023-04-06T00:51:16;101775.69;;;1.75;76.99
76637;BME280;65532;52.124;5.480;2023-04-06T00:53:42;101765.28;;;1.72;76.88
76637;BME280;65532;52.124;5.480;2023-04-06T00:56:10;101777.63;;;1.73;76.85
76637;BME280;65532;52.124;5.480;2023-04-06T00:58:48;101763.59;;;1.71;76.92
76637;BME280;65532;52.124;5.480;2023-04-06T01:01:15;101768.09;;;1.70;77.05
76637;BME280;65532;52.124;5.480;2023-04-06T01:03:42;101759.94;;;1.72;77.03
76637;BME280;65532;52.124;5.480;2023-04-06T01:06:15;101759.25;;;1.70;76.40
76637;BME280;65532;52.124;5.480;2023-04-06T01:08:45;101759.25;;;1.70;76.58
76637;BME280;65532;52.124;5.480;2023-04-06T01:11:17;101756.75;;;1.68;76.78
76637;BME280;65532;52.124;5.480;2023-04-06T01:13:45;101760.25;;;1.69;77.28
76637;BME280;65532;52.124;5.480;2023-04-06T01:16:20;101747.75;;;1.69;76.41
76637;BME280;65532;52.124;5.480;2023-04-06T01:19:00;101744.56;;;1.66;76.76
76637;BME280;65532;52.124;5.480;2023-04-06T01:21:30;101743.72;;;1.65;77.09
76637;BME280;65532;52.124;5.480;2023-04-06T01:24:15;101747.38;;;1.64;77.20
76637;BME280;65532;52.124;5.480;2023-04-06T01:27:06;101740.88;;;1.67;77.10
76637;BME280;65532;52.124;5.480;2023-04-06T01:29:53;101737.53;;;1.65;77.16
76637;BME280;65532;52.124;5.480;2023-04-06T01:32:38;101739.53;;;1.63;77.23
76637;BME280;65532;52.124;5.480;2023-04-06T01:35:06;101729.16;;;1.60;77.48
76637;BME280;65532;52.124;5.480;2023-04-06T01:37:37;101730.16;;;1.59;77.58
76637;BME280;65532;52.124;5.480;2023-04-06T01:40:07;101731.81;;;1.60;77.47
76637;BME280;65532;52.124;5.480;2023-04-06T01:42:41;101729.00;;;1.61;77.30
76637;BME280;65532;52.124;5.480;2023-04-06T01:45:11;101728.53;;;1.66;77.00
76637;BME280;65532;52.124;5.480;2023-04-06T01:47:38;101719.75;;;1.73;76.31
76637;BME280;65532;52.124;5.480;2023-04-06T01:50:06;101722.00;;;1.78;75.82
76637;BME280;65532;52.124;5.480;2023-04-06T01:52:39;101710.69;;;1.84;75.52
76637;BME280;65532;52.124;5.480;2023-04-06T01:55:06;101716.41;;;1.89;75.04
76637;BME280;65532;52.124;5.480;2023-04-06T01:57:53;101712.31;;;1.95;74.19
76637;BME280;65532;52.124;5.480;2023-04-06T02:00:30;101709.16;;;1.99;74.22
76637;BME280;65532;52.124;5.480;2023-04-06T02:02:57;101706.19;;;2.02;73.94
76637;BME280;65532;52.124;5.480;2023-04-06T02:05:28;101704.91;;;2.06;74.23
76637;BME280;65532;52.124;5.480;2023-04-06T02:07:55;101691.59;;;2.15;73.95
76637;BME280;65532;52.124;5.480;2023-04-06T02:10:29;101701.97;;;2.18;74.03
76637;BME280;65532;52.124;5.480;2023-04-06T02:12:59;101689.16;;;2.21;74.37
76637;BME280;65532;52.124;5.480;2023-04-06T02:15:26;101688.84;;;2.24;74.39
76637;BME280;65532;52.124;5.480;2023-04-06T02:17:53;101682.88;;;2.30;73.58
76637;BME280;65532;52.124;5.480;2023-04-06T02:20:19;101680.09;;;2.40;72.41
76637;BME280;65532;52.124;5.480;2023-04-06T02:22:46;101685.56;;;2.56;71.52
76637;BME280;65532;52.124;5.480;2023-04-06T02:25:12;101675.06;;;2.63;71.54
76637;BME280;65532;52.124;5.480;2023-04-06T02:27:39;101677.94;;;2.69;71.43
76637;BME280;65532;52.124;5.480;2023-04-06T02:30:06;101681.66;;;2.77;70.38
76637;BME280;65532;52.124;5.480;2023-04-06T02:32:33;101681.69;;;2.85;69.65
76637;BME280;65532;52.124;5.480;2023-04-06T02:35:01;101680.88;;;2.92;69.61
76637;BME280;65532;52.124;5.480;2023-04-06T02:37:29;101677.44;;;3.00;69.66
76637;BME280;65532;52.124;5.480;2023-04-06T02:39:57;101668.41;;;3.01;69.49
76637;BME280;65532;52.124;5.480;2023-04-06T02:42:23;101669.75;;;3.05;70.16
76637;BME280;65532;52.124;5.480;2023-04-06T02:44:51;101670.41;;;3.07;69.77
76637;BME280;65532;52.124;5.480;2023-04-06T02:47:20;101663.06;;;3.09;69.95
76637;BME280;65532;52.124;5.480;2023-04-06T02:49:49;101658.38;;;3.11;70.62
76637;BME280;65532;52.124;5.480;2023-04-06T02:52:16;101654.38;;;3.15;70.36
76637;BME280;65532;52.124;5.480;2023-04-06T02:54:44;101651.56;;;3.17;69.95
76637;BME280;65532;52.124;5.480;2023-04-06T02:57:11;101651.06;;;3.21;69.76
76637;BME280;65532;52.124;5.480;2023-04-06T02:59:42;101646.38;;;3.23;69.65
76637;BME280;65532;52.124;5.480;2023-04-06T03:02:15;101649.06;;;3.23;69.38
76637;BME280;65532;52.124;5.480;2023-04-06T03:04:44;101644.56;;;3.24;69.26
76637;BME280;65532;52.124;5.480;2023-04-06T03:07:20;101647.22;;;3.24;69.95
76637;BME280;65532;52.124;5.480;2023-04-06T03:09:47;101638.19;;;3.25;69.76
76637;BME280;65532;52.124;5.480;2023-04-06T03:12:13;101637.03;;;3.27;69.37
76637;BME280;65532;52.124;5.480;2023-04-06T03:15:07;101637.69;;;3.29;68.76
76637;BME280;65532;52.124;5.480;2023-04-06T03:17:35;101633.03;;;3.32;69.18
76637;BME280;65532;52.124;5.480;2023-04-06T03:20:06;101637.22;;;3.34;68.78
76637;BME280;65532;52.124;5.480;2023-04-06T03:22:33;101631.72;;;3.36;69.10
76637;BME280;65532;52.124;5.480;2023-04-06T03:25:01;101632.38;;;3.38;68.71
76637;BME280;65532;52.124;5.480;2023-04-06T03:27:30;101626.69;;;3.41;68.80
76637;BME280;65532;52.124;5.480;2023-04-06T03:29:57;101623.84;;;3.42;67.91
76637;BME280;65532;52.124;5.480;2023-04-06T03:32:30;101623.69;;;3.44;67.88
76637;BME280;65532;52.124;5.480;2023-04-06T03:34:57;101619.16;;;3.44;68.05
76637;BME280;65532;52.124;5.480;2023-04-06T03:37:24;101613.63;;;3.46;68.15
76637;BME280;65532;52.124;5.480;2023-04-06T03:39:53;101620.66;;;3.47;67.98
76637;BME280;65532;52.124;5.480;2023-04-06T03:42:22;101609.28;;;3.45;68.03
76637;BME280;65532;52.124;5.480;2023-04-06T03:44:53;101607.28;;;3.47;67.60
76637;BME280;65532;52.124;5.480;2023-04-06T03:47:19;101609.66;;;3.50;67.31
76637;BME280;65532;52.124;5.480;2023-04-06T03:49:46;101595.25;;;3.51;67.72
76637;BME280;65532;52.124;5.480;2023-04-06T03:52:14;101606.63;;;3.53;68.41
76637;BME280;65532;52.124;5.480;2023-04-06T03:54:41;101602.28;;;3.52;68.67
76637;BME280;65532;52.124;5.480;2023-04-06T03:57:09;101603.97;;;3.53;68.53
76637;BME280;65532;52.124;5.480;2023-04-06T03:59:36;101601.94;;;3.55;68.72
76637;BME280;65532;52.124;5.480;2023-04-06T04:02:02;101603.78;;;3.54;68.57
76637;BME280;65532;52.124;5.480;2023-04-06T04:04:29;101603.63;;;3.56;69.19
76637;BME280;65532;52.124;5.480;2023-04-06T04:06:57;101599.09;;;3.56;68.62
76637;BME280;65532;52.124;5.480;2023-04-06T04:09:23;101600.94;;;3.56;67.68
76637;BME280;65532;52.124;5.480;2023-04-06T04:11:50;101599.59;;;3.60;68.42
76637;BME280;65532;52.124;5.480;2023-04-06T04:14:16;101591.75;;;3.58;68.09
76637;BME280;65532;52.124;5.480;2023-04-06T04:16:44;101602.28;;;3.60;68.12
76637;BME280;65532;52.124;5.480;2023-04-06T04:19:10;101595.91;;;3.61;67.87
76637;BME280;65532;52.124;5.480;2023-04-06T04:21:46;101599.28;;;3.63;67.69
76637;BME280;65532;52.124;5.480;2023-04-06T04:24:17;101602.94;;;3.62;67.94
76637;BME280;65532;52.124;5.480;2023-04-06T04:26:43;101600.59;;;3.59;67.94
76637;BME280;65532;52.124;5.480;2023-04-06T04:29:10;101597.25;;;3.57;67.66
76637;BME280;65532;52.124;5.480;2023-04-06T04:31:37;101601.94;;;3.55;68.28
76637;BME280;65532;52.124;5.480;2023-04-06T04:34:11;101605.63;;;3.54;67.95
76637;BME280;65532;52.124;5.480;2023-04-06T04:36:37;101597.59;;;3.54;68.14
76637;BME280;65532;52.124;5.480;2023-04-06T04:39:06;101594.25;;;3.52;68.16
76637;BME280;65532;52.124;5.480;2023-04-06T04:41:38;101601.63;;;3.50;68.47
76637;BME280;65532;52.124;5.480;2023-04-06T04:44:07;101598.09;;;3.49;68.35
76637;BME280;65532;52.124;5.480;2023-04-06T04:46:34;101599.25;;;3.47;67.63
76637;BME280;65532;52.124;5.480;2023-04-06T04:49:01;101597.59;;;3.46;67.90
76637;BME280;65532;52.124;5.480;2023-04-06T04:51:28;101593.41;;;3.43;68.61
76637;BME280;65532;52.124;5.480;2023-04-06T04:54:07;101592.91;;;3.40;67.81
76637;BME280;65532;52.124;5.480;2023-04-06T04:56:33;101594.91;;;3.38;68.56
76637;BME280;65532;52.124;5.480;2023-04-06T04:59:20;101590.56;;;3.37;68.31
76637;BME280;65532;52.124;5.480;2023-04-06T05:01:53;101591.56;;;3.36;68.12
76637;BME280;65532;52.124;5.480;2023-04-06T05:04:27;101598.59;;;3.37;68.43
76637;BME280;65532;52.124;5.480;2023-04-06T05:07:07;101587.88;;;3.37;68.77
76637;BME280;65532;52.124;5.480;2023-04-06T05:09:36;101593.25;;;3.37;68.31
76637;BME280;65532;52.124;5.480;2023-04-06T05:12:04;101592.91;;;3.40;68.22
76637;BME280;65532;52.124;5.480;2023-04-06T05:14:36;101591.06;;;3.40;68.49
76637;BME280;65532;52.124;5.480;2023-04-06T05:17:09;101585.53;;;3.42;68.82
76637;BME280;65532;52.124;5.480;2023-04-06T05:19:36;101587.03;;;3.44;69.30
76637;BME280;65532;52.124;5.480;2023-04-06T05:22:02;101592.09;;;3.47;69.51
76637;BME280;65532;52.124;5.480;2023-04-06T05:24:32;101590.75;;;3.51;68.55
76637;BME280;65532;52.124;5.480;2023-04-06T05:26:59;101587.72;;;3.54;68.80
76637;BME280;65532;52.124;5.480;2023-04-06T05:29:26;101584.72;;;3.57;69.37
76637;BME280;65532;52.124;5.480;2023-04-06T05:31:53;101580.69;;;3.61;69.38
76637;BME280;65532;52.124;5.480;2023-04-06T05:34:20;101584.91;;;3.64;68.79
76637;BME280;65532;52.124;5.480;2023-04-06T05:36:48;101583.56;;;3.68;69.22
76637;BME280;65532;52.124;5.480;2023-04-06T05:39:18;101571.16;;;3.75;69.13
76637;BME280;65532;52.124;5.480;2023-04-06T05:41:49;101578.53;;;3.81;68.84
76637;BME280;65532;52.124;5.480;2023-04-06T05:44:23;101571.66;;;3.87;68.88
76637;BME280;65532;52.124;5.480;2023-04-06T05:47:00;101571.97;;;3.92;69.31
76637;BME280;65532;52.124;5.480;2023-04-06T05:49:26;101567.44;;;4.01;69.41
76637;BME280;65532;52.124;5.480;2023-04-06T05:51:53;101569.44;;;4.07;68.91
76637;BME280;65532;52.124;5.480;2023-04-06T05:54:20;101575.44;;;4.17;68.64
76637;BME280;65532;52.124;5.480;2023-04-06T05:56:46;101567.72;;;4.22;68.91
76637;BME280;65532;52.124;5.480;2023-04-06T05:59:14;101568.22;;;4.26;68.68
76637;BME280;65532;52.124;5.480;2023-04-06T06:01:42;101572.91;;;4.32;69.08
76637;BME280;65532;52.124;5.480;2023-04-06T06:04:09;101566.00;;;4.37;69.26
76637;BME280;65532;52.124;5.480;2023-04-06T06:06:37;101564.16;;;4.46;69.23
76637;BME280;65532;52.124;5.480;2023-04-06T06:09:10;101563.09;;;4.55;68.79
76637;BME280;65532;52.124;5.480;2023-04-06T06:11:43;101563.59;;;4.59;68.71
76637;BME280;65532;52.124;5.480;2023-04-06T06:14:13;101565.56;;;4.65;67.86
76637;BME280;65532;52.124;5.480;2023-04-06T06:16:40;101560.88;;;4.67;67.84
76637;BME280;65532;52.124;5.480;2023-04-06T06:19:09;101561.84;;;4.74;67.65
76637;BME280;65532;52.124;5.480;2023-04-06T06:21:36;101555.13;;;4.78;67.97
76637;BME280;65532;52.124;5.480;2023-04-06T06:24:05;101562.81;;;4.81;68.07
76637;BME280;65532;52.124;5.480;2023-04-06T06:26:32;101564.78;;;4.87;67.77
76637;BME280;65532;52.124;5.480;2023-04-06T06:28:59;101565.47;;;4.89;68.59
76637;BME280;65532;52.124;5.480;2023-04-06T06:31:26;101567.97;;;4.91;68.04
76637;BME280;65532;52.124;5.480;2023-04-06T06:33:53;101559.75;;;4.92;67.86
76637;BME280;65532;52.124;5.480;2023-04-06T06:36:20;101559.75;;;4.92;68.43
76637;BME280;65532;52.124;5.480;2023-04-06T06:38:47;101560.22;;;4.96;67.91
76637;BME280;65532;52.124;5.480;2023-04-06T06:41:16;101567.72;;;5.00;67.86
76637;BME280;65532;52.124;5.480;2023-04-06T06:43:42;101569.03;;;5.04;68.18
76637;BME280;65532;52.124;5.480;2023-04-06T06:46:10;101564.19;;;5.08;67.98
76637;BME280;65532;52.124;5.480;2023-04-06T06:48:39;101554.38;;;5.15;67.97
76637;BME280;65532;52.124;5.480;2023-04-06T06:51:05;101562.56;;;5.22;68.03
76637;BME280;65532;52.124;5.480;2023-04-06T06:53:31;101556.97;;;5.31;67.74
76637;BME280;65532;52.124;5.480;2023-04-06T06:55:58;101563.69;;;5.50;67.75
76637;BME280;65532;52.124;5.480;2023-04-06T06:58:25;101556.03;;;5.62;67.74
76637;BME280;65532;52.124;5.480;2023-04-06T07:00:56;101566.19;;;5.75;67.79
76637;BME280;65532;52.124;5.480;2023-04-06T07:03:23;101557.50;;;5.87;67.77
76637;BME280;65532;52.124;5.480;2023-04-06T07:05:50;101566.66;;;6.16;67.41
76637;BME280;65532;52.124;5.480;2023-04-06T07:08:23;101567.03;;;6.27;66.85
76637;BME280;65532;52.124;5.480;2023-04-06T07:10:52;101556.91;;;6.29;66.76
76637;BME280;65532;52.124;5.480;2023-04-06T07:13:19;101564.97;;;6.29;67.25
76637;BME280;65532;52.124;5.480;2023-04-06T07:15:53;101553.13;;;6.39;66.69
76637;BME280;65532;52.124;5.480;2023-04-06T07:18:20;101560.09;;;6.33;66.74
76637;BME280;65532;52.124;5.480;2023-04-06T07:20:47;101550.50;;;6.30;66.85
76637;BME280;65532;52.124;5.480;2023-04-06T07:23:14;101558.94;;;6.27;67.12
76637;BME280;65532;52.124;5.480;2023-04-06T07:25:41;101551.91;;;6.26;67.15
76637;BME280;65532;52.124;5.480;2023-04-06T07:28:08;101547.56;;;6.25;66.80
76637;BME280;65532;52.124;5.480;2023-04-06T07:30:37;101546.91;;;6.23;66.78
76637;BME280;65532;52.124;5.480;2023-04-06T07:33:04;101537.16;;;6.22;66.42
76637;BME280;65532;52.124;5.480;2023-04-06T07:35:33;101544.59;;;6.20;66.41
76637;BME280;65532;52.124;5.480;2023-04-06T07:38:02;101548.31;;;6.19;66.65
76637;BME280;65532;52.124;5.480;2023-04-06T07:40:29;101552.00;;;6.18;66.62
76637;BME280;65532;52.124;5.480;2023-04-06T07:42:58;101549.59;;;6.23;66.62
76637;BME280;65532;52.124;5.480;2023-04-06T07:45:25;101545.69;;;6.26;66.47
76637;BME280;65532;52.124;5.480;2023-04-06T07:47:52;101542.19;;;6.25;66.25
76637;BME280;65532;52.124;5.480;2023-04-06T07:50:18;101543.47;;;6.29;66.49
76637;BME280;65532;52.124;5.480;2023-04-06T07:52:46;101545.44;;;6.36;66.40
76637;BME280;65532;52.124;5.480;2023-04-06T07:55:13;101546.34;;;6.43;66.20
76637;BME280;65532;52.124;5.480;2023-04-06T07:57:40;101537.53;;;6.49;66.39
76637;BME280;65532;52.124;5.480;2023-04-06T08:00:06;101543.44;;;6.59;66.58
76637;BME280;65532;52.124;5.480;2023-04-06T08:02:38;101549.75;;;6.66;66.38
76637;BME280;65532;52.124;5.480;2023-04-06T08:05:05;101544.00;;;6.69;66.34
76637;BME280;65532;52.124;5.480;2023-04-06T08:07:32;101538.22;;;6.72;66.40
76637;BME280;65532;52.124;5.480;2023-04-06T08:09:58;101539.53;;;6.76;66.20
76637;BME280;65532;52.124;5.480;2023-04-06T08:12:25;101550.81;;;6.86;65.98
76637;BME280;65532;52.124;5.480;2023-04-06T08:14:51;101549.47;;;7.12;65.96
76637;BME280;65532;52.124;5.480;2023-04-06T08:17:18;101541.81;;;7.37;65.89
76637;BME280;65532;52.124;5.480;2023-04-06T08:19:44;101548.69;;;7.61;65.31
76637;BME280;65532;52.124;5.480;2023-04-06T08:22:11;101549.25;;;7.77;64.75
76637;BME280;65532;52.124;5.480;2023-04-06T08:24:38;101546.38;;;7.86;64.23
76637;BME280;65532;52.124;5.480;2023-04-06T08:27:04;101543.13;;;7.90;63.39
76637;BME280;65532;52.124;5.480;2023-04-06T08:29:31;101535.50;;;8.00;63.07
76637;BME280;65532;52.124;5.480;2023-04-06T08:31:57;101538.78;;;7.89;62.75
76637;BME280;65532;52.124;5.480;2023-04-06T08:34:24;101534.78;;;7.85;63.32
76637;BME280;65532;52.124;5.480;2023-04-06T08:36:50;101546.47;;;7.71;63.31
76637;BME280;65532;52.124;5.480;2023-04-06T08:39:17;101533.91;;;7.57;63.65
76637;BME280;65532;52.124;5.480;2023-04-06T08:41:43;101536.84;;;7.34;63.58
76637;BME280;65532;52.124;5.480;2023-04-06T08:44:10;101538.31;;;7.36;63.75
76637;BME280;65532;52.124;5.480;2023-04-06T08:46:37;101527.34;;;7.38;63.93
76637;BME280;65532;52.124;5.480;2023-04-06T08:49:04;101529.19;;;7.59;63.48
76637;BME280;65532;52.124;5.480;2023-04-06T08:51:37;101524.97;;;7.77;63.94
76637;BME280;65532;52.124;5.480;2023-04-06T08:54:04;101533.28;;;7.76;63.50
76637;BME280;65532;52.124;5.480;2023-04-06T08:56:31;101530.38;;;7.77;63.12
76637;BME280;65532;52.124;5.480;2023-04-06T08:58:58;101531.41;;;7.76;63.16
76637;BME280;65532;52.124;5.480;2023-04-06T09:01:27;101530.63;;;7.82;63.61
76637;BME280;65532;52.124;5.480;2023-04-06T09:03:58;101536.50;;;7.93;63.66
76637;BME280;65532;52.124;5.480;2023-04-06T09:06:27;101542.44;;;8.09;63.38
76637;BME280;65532;52.124;5.480;2023-04-06T09:08:53;101536.72;;;8.26;63.05
76637;BME280;65532;52.124;5.480;2023-04-06T09:11:21;101537.75;;;8.25;62.82
76637;BME280;65532;52.124;5.480;2023-04-06T09:13:50;101537.66;;;8.39;63.32
76637;BME280;65532;52.124;5.480;2023-04-06T09:16:17;101534.22;;;8.59;62.87
76637;BME280;65532;52.124;5.480;2023-04-06T09:18:44;101548.59;;;8.73;63.24
76637;BME280;65532;52.124;5.480;2023-04-06T09:21:11;101543.22;;;8.79;62.17
76637;BME280;65532;52.124;5.480;2023-04-06T09:23:37;101543.41;;;8.78;62.40
76637;BME280;65532;52.124;5.480;2023-04-06T09:28:46;101543.69;;;8.96;61.77
76637;BME280;65532;52.124;5.480;2023-04-06T09:31:21;101537.03;;;8.98;61.78
76637;BME280;65532;52.124;5.480;2023-04-06T09:33:48;101541.66;;;9.11;61.59
76637;BME280;65532;52.124;5.480;2023-04-06T09:36:15;101535.88;;;9.27;61.66
76637;BME280;65532;52.124;5.480;2023-04-06T09:38:55;101535.22;;;9.12;61.86
76637;BME280;65532;52.124;5.480;2023-04-06T09:41:29;101537.75;;;9.20;61.88
76637;BME280;65532;52.124;5.480;2023-04-06T09:44:04;101532.38;;;9.34;61.54
76637;BME280;65532;52.124;5.480;2023-04-06T09:46:33;101532.56;;;9.39;61.63
76637;BME280;65532;52.124;5.480;2023-04-06T09:49:21;101538.38;;;9.42;62.33
76637;BME280;65532;52.124;5.480;2023-04-06T09:51:53;101537.53;;;9.28;61.84
76637;BME280;65532;52.124;5.480;2023-04-06T09:54:21;101545.44;;;9.23;61.84
76637;BME280;65532;52.124;5.480;2023-04-06T09:56:56;101541.69;;;9.24;62.51
76637;BME280;65532;52.124;5.480;2023-04-06T09:59:40;101536.09;;;9.39;62.07
76637;BME280;65532;52.124;5.480;2023-04-06T10:02:18;101541.31;;;9.60;61.96
76637;BME280;65532;52.124;5.480;2023-04-06T10:05:19;101540.06;;;9.76;61.86
76637;BME280;65532;52.124;5.480;2023-04-06T10:07:48;101535.91;;;9.87;62.03
76637;BME280;65532;52.124;5.480;2023-04-06T10:10:22;101538.16;;;10.03;61.45
76637;BME280;65532;52.124;5.480;2023-04-06T10:12:49;101538.59;;;9.94;61.31
76637;BME280;65532;52.124;5.480;2023-04-06T10:15:16;101537.94;;;10.05;62.21
76637;BME280;65532;52.124;5.480;2023-04-06T10:17:46;101542.94;;;10.21;61.84
76637;BME280;65532;52.124;5.480;2023-04-06T10:20:22;101547.91;;;10.37;62.76
76637;BME280;65532;52.124;5.480;2023-04-06T10:23:01;101551.66;;;10.36;62.13
76637;BME280;65532;52.124;5.480;2023-04-06T10:25:32;101545.88;;;10.26;63.16
76637;BME280;65532;52.124;5.480;2023-04-06T10:30:28;101541.88;;;10.35;63.67
76637;BME280;65532;52.124;5.480;2023-04-06T10:32:54;101549.38;;;10.33;64.26
76637;BME280;65532;52.124;5.480;2023-04-06T10:35:21;101545.03;;;10.32;64.70
76637;BME280;65532;52.124;5.480;2023-04-06T10:38:03;101542.13;;;10.27;65.29
76637;BME280;65532;52.124;5.480;2023-04-06T10:40:29;101552.09;;;10.33;65.46
76637;BME280;65532;52.124;5.480;2023-04-06T10:43:27;101543.38;;;10.05;66.14
76637;BME280;65532;52.124;5.480;2023-04-06T10:46:00;101535.69;;;9.95;67.08
76637;BME280;65532;52.124;5.480;2023-04-06T10:48:44;101537.56;;;9.88;68.19
76637;BME280;65532;52.124;5.480;2023-04-06T10:51:13;101540.47;;;9.73;68.51
76637;BME280;65532;52.124;5.480;2023-04-06T10:53:47;101540.88;;;9.57;71.70
76637;BME280;65532;52.124;5.480;2023-04-06T10:56:16;101538.63;;;9.47;72.69
76637;BME280;65532;52.124;5.480;2023-04-06T10:58:44;101541.06;;;9.29;73.41
76637;BME280;65532;52.124;5.480;2023-04-06T11:01:14;101536.25;;;9.11;75.69
76637;BME280;65532;52.124;5.480;2023-04-06T11:03:45;101537.28;;;9.10;77.15
76637;BME280;65532;52.124;5.480;2023-04-06T11:06:20;101536.03;;;9.06;78.55
76637;BME280;65532;52.124;5.480;2023-04-06T11:08:47;101541.44;;;8.99;78.79
76637;BME280;65532;52.124;5.480;2023-04-06T11:11:17;101530.38;;;8.94;79.46
76637;BME280;65532;52.124;5.480;2023-04-06T11:13:47;101530.00;;;9.04;81.06
76637;BME280;65532;52.124;5.480;2023-04-06T11:16:19;101530.22;;;9.03;80.25
76637;BME280;65532;52.124;5.480;2023-04-06T11:18:54;101534.13;;;8.87;80.30
76637;BME280;65532;52.124;5.480;2023-04-06T11:21:41;101527.44;;;8.83;81.03
76637;BME280;65532;52.124;5.480;2023-04-06T11:24:22;101529.72;;;8.73;82.55
76637;BME280;65532;52.124;5.480;2023-04-06T11:26:58;101522.59;;;8.58;82.38
76637;BME280;65532;52.124;5.480;2023-04-06T11:29:29;101525.28;;;8.58;83.68
76637;BME280;65532;52.124;5.480;2023-04-06T11:32:02;101518.84;;;8.59;83.84
76637;BME280;65532;52.124;5.480;2023-04-06T11:34:30;101511.16;;;8.56;83.79
76637;BME280;65532;52.124;5.480;2023-04-06T11:36:59;101517.19;;;8.58;83.80
76637;BME280;65532;52.124;5.480;2023-04-06T11:39:27;101515.75;;;8.62;83.08
76637;BME280;65532;52.124;5.480;2023-04-06T11:41:57;101518.69;;;8.74;85.48
76637;BME280;65532;52.124;5.480;2023-04-06T11:44:29;101513.94;;;8.76;85.78
76637;BME280;65532;52.124;5.480;2023-04-06T11:46:57;101504.16;;;8.68;83.21
76637;BME280;65532;52.124;5.480;2023-04-06T11:49:28;101498.28;;;8.58;83.39
76637;BME280;65532;52.124;5.480;2023-04-06T11:51:56;101493.25;;;8.42;83.27
76637;BME280;65532;52.124;5.480;2023-04-06T11:56:56;101491.78;;;8.39;83.49
76637;BME280;65532;52.124;5.480;2023-04-06T11:59:23;101492.63;;;8.40;83.84
76637;BME280;65532;52.124;5.480;2023-04-06T12:01:49;101489.91;;;8.40;83.44
76637;BME280;65532;52.124;5.480;2023-04-06T12:04:16;101492.84;;;8.45;83.95
76637;BME280;65532;52.124;5.480;2023-04-06T12:06:44;101494.50;;;8.46;83.88
76637;BME280;65532;52.124;5.480;2023-04-06T12:09:10;101483.28;;;8.43;84.70
76637;BME280;65532;52.124;5.480;2023-04-06T12:11:37;101480.41;;;8.51;84.40
76637;BME280;65532;52.124;5.480;2023-04-06T12:14:04;101483.06;;;8.37;84.75
76637;BME280;65532;52.124;5.480;2023-04-06T12:16:31;101478.94;;;8.42;85.44
76637;BME280;65532;52.124;5.480;2023-04-06T12:18:58;101477.06;;;8.42;85.41
76637;BME280;65532;52.124;5.480;2023-04-06T12:21:24;101480.38;;;8.37;84.83
76637;BME280;65532;52.124;5.480;2023-04-06T12:23:51;101470.31;;;8.25;86.25
76637;BME280;65532;52.124;5.480;2023-04-06T12:26:17;101465.31;;;8.22;85.94
76637;BME280;65532;52.124;5.480;2023-04-06T12:28:43;101481.94;;;8.25;86.02
76637;BME280;65532;52.124;5.480;2023-04-06T12:31:17;101472.31;;;8.09;87.20
76637;BME280;65532;52.124;5.480;2023-04-06T12:33:49;101470.66;;;8.08;86.54
76637;BME280;65532;52.124;5.480;2023-04-06T12:36:18;101471.91;;;8.13;86.90
76637;BME280;65532;52.124;5.480;2023-04-06T12:38:49;101469.53;;;7.96;87.36
76637;BME280;65532;52.124;5.480;2023-04-06T12:41:16;101472.22;;;7.96;88.09
76637;BME280;65532;52.124;5.480;2023-04-06T12:43:43;101464.53;;;7.93;88.58
76637;BME280;65532;52.124;5.480;2023-04-06T12:46:11;101460.81;;;7.94;88.13
76637;BME280;65532;52.124;5.480;2023-04-06T12:48:37;101463.09;;;7.91;88.71
76637;BME280;65532;52.124;5.480;2023-04-06T12:51:05;101463.66;;;7.86;88.95
76637;BME280;65532;52.124;5.480;2023-04-06T12:53:34;101460.97;;;7.86;89.08
76637;BME280;65532;52.124;5.480;2023-04-06T12:56:01;101463.44;;;7.88;88.86
76637;BME280;65532;52.124;5.480;2023-04-06T12:58:28;101448.94;;;7.89;89.20
76637;BME280;65532;52.124;5.480;2023-04-06T13:00:57;101453.13;;;7.91;89.24
76637;BME280;65532;52.124;5.480;2023-04-06T13:03:29;101455.63;;;7.93;88.79
76637;BME280;65532;52.124;5.480;2023-04-06T13:05:56;101449.72;;;7.76;89.03
76637;BME280;65532;52.124;5.480;2023-04-06T13:08:22;101447.59;;;7.71;89.67
76637;BME280;65532;52.124;5.480;2023-04-06T13:10:50;101440.34;;;7.72;89.66
76637;BME280;65532;52.124;5.480;2023-04-06T13:13:17;101445.91;;;7.64;89.77
76637;BME280;65532;52.124;5.480;2023-04-06T13:15:44;101445.91;;;7.64;90.38
76637;BME280;65532;52.124;5.480;2023-04-06T13:18:11;101447.38;;;7.73;89.41
76637;BME280;65532;52.124;5.480;2023-04-06T13:20:37;101438.88;;;7.69;90.06